Time;durP1;ratioP1;P1;durP2;ratioP2;P2;SDS_P1;SDS_P2;PMS_P1;PMS_P2;Temp;Humidity;BMP_temperature;BMP_pressure;BME280_temperature;BME280_humidity;BME280_pressure;Samples;Min_cycle;Max_cycle;Signal;HPM_P1;HPM_P2
2023/08/01 00:01:16;;;;;;;16.33;5.00;;;17.10;99.90;;;;;;5008754;28;20893;-53
2023/08/01 00:03:44;;;;;;;8.73;4.20;;;17.10;99.90;;;;;;5010636;28;20487;-52
2023/08/01 00:06:10;;;;;;;13.80;4.37;;;17.00;99.90;;;;;;5014218;28;20480;-52
2023/08/01 00:08:38;;;;;;;8.00;3.90;;;17.00;99.90;;;;;;5013020;28;20511;-51
2023/08/01 00:11:05;;;;;;;7.90;4.80;;;17.00;99.90;;;;;;5010798;28;20578;-53
2023/08/01 00:13:31;;;;;;;7.70;4.70;;;17.00;99.90;;;;;;5013285;28;20546;-53
2023/08/01 00:15:58;;;;;;;8.50;5.13;;;17.00;99.90;;;;;;5012022;28;20468;-52
2023/08/01 00:18:24;;;;;;;6.33;3.97;;;16.90;99.90;;;;;;5009355;28;20515;-53
2023/08/01 00:20:53;;;;;;;9.37;4.70;;;16.90;99.90;;;;;;5011173;28;20487;-53
2023/08/01 00:23:20;;;;;;;9.50;4.93;;;16.90;99.90;;;;;;5009165;28;20471;-52
2023/08/01 00:25:51;;;;;;;9.33;5.50;;;16.90;99.90;;;;;;5010969;28;20518;-52
2023/08/01 00:28:17;;;;;;;11.43;4.13;;;16.90;99.90;;;;;;5020240;28;20483;-52
2023/08/01 00:30:44;;;;;;;7.97;5.30;;;16.90;99.90;;;;;;5026707;28;20472;-60
2023/08/01 00:33:10;;;;;;;10.23;4.70;;;16.80;99.90;;;;;;5027270;28;20479;-53
2023/08/01 00:35:37;;;;;;;5.80;4.03;;;16.80;99.90;;;;;;5022944;28;20463;-52
2023/08/01 00:38:03;;;;;;;10.30;4.70;;;16.80;99.90;;;;;;5024196;28;21005;-55
2023/08/01 00:40:31;;;;;;;8.23;4.57;;;16.70;99.90;;;;;;5022015;28;20443;-51
2023/08/01 00:42:59;;;;;;;13.07;6.30;;;16.70;99.90;;;;;;5024028;28;20471;-52
2023/08/01 00:45:25;;;;;;;7.57;4.13;;;16.70;99.90;;;;;;5012543;28;20487;-54
2023/08/01 00:47:52;;;;;;;5.43;3.73;;;16.70;99.90;;;;;;5014739;28;20950;-59
2023/08/01 00:50:20;;;;;;;11.03;4.63;;;16.70;99.90;;;;;;5009528;28;20567;-53
2023/08/01 00:52:46;;;;;;;8.23;4.80;;;16.70;99.90;;;;;;5011764;28;20463;-54
2023/08/01 00:55:13;;;;;;;7.00;4.40;;;16.60;99.90;;;;;;5013451;28;20546;-53
2023/08/01 00:57:40;;;;;;;7.13;3.93;;;16.70;99.90;;;;;;5014447;28;20514;-52
2023/08/01 01:00:10;;;;;;;8.23;4.43;;;16.70;99.90;;;;;;5014658;28;20510;-54
2023/08/01 01:02:37;;;;;;;6.90;3.97;;;16.70;99.90;;;;;;5008647;28;20440;-52
2023/08/01 01:05:05;;;;;;;8.20;3.43;;;16.70;99.90;;;;;;5014860;28;20475;-53
2023/08/01 01:07:32;;;;;;;3.83;3.30;;;16.70;99.90;;;;;;5011265;28;20459;-52
2023/08/01 01:09:58;;;;;;;5.73;3.60;;;16.70;99.90;;;;;;5008807;28;20555;-53
2023/08/01 01:12:25;;;;;;;3.43;2.67;;;16.70;99.90;;;;;;5015002;28;20526;-51
2023/08/01 01:14:52;;;;;;;7.23;2.77;;;16.60;99.90;;;;;;5013880;28;20615;-53
2023/08/01 01:17:20;;;;;;;6.80;3.33;;;16.60;99.90;;;;;;5015757;28;20443;-52
2023/08/01 01:19:47;;;;;;;5.03;2.97;;;16.60;99.90;;;;;;5005350;28;20496;-51
2023/08/01 01:22:16;;;;;;;3.00;2.70;;;16.60;99.90;;;;;;5012692;28;20530;-52
2023/08/01 01:24:43;;;;;;;8.00;2.83;;;16.60;99.90;;;;;;5010969;28;20467;-52
2023/08/01 01:27:11;;;;;;;4.63;2.93;;;16.60;99.90;;;;;;5010986;28;20467;-52
2023/08/01 01:29:38;;;;;;;4.00;2.40;;;16.60;99.90;;;;;;5013917;28;20494;-52
2023/08/01 01:32:07;;;;;;;8.50;2.90;;;16.50;99.90;;;;;;5011328;28;21064;-52
2023/08/01 01:34:33;;;;;;;3.70;3.00;;;16.60;99.90;;;;;;5011793;28;20895;-52
2023/08/01 01:37:00;;;;;;;6.30;3.40;;;16.60;99.90;;;;;;5000640;28;20558;-52
2023/08/01 01:39:28;;;;;;;4.83;3.47;;;16.50;99.90;;;;;;5010702;28;20566;-52
2023/08/01 01:41:54;;;;;;;4.73;2.97;;;16.60;99.90;;;;;;5009171;28;20499;-52
2023/08/01 01:44:21;;;;;;;6.07;2.97;;;16.60;99.90;;;;;;5009372;28;20521;-53
2023/08/01 01:46:49;;;;;;;2.83;2.57;;;16.60;99.90;;;;;;5012960;28;20558;-52
2023/08/01 01:49:15;;;;;;;5.60;3.40;;;16.60;99.90;;;;;;5012802;28;21016;-52
2023/08/01 01:51:42;;;;;;;4.73;2.80;;;16.60;99.90;;;;;;5013279;28;20570;-54
2023/08/01 01:54:08;;;;;;;3.33;2.93;;;16.60;99.90;;;;;;5005990;28;20510;-52
2023/08/01 01:56:36;;;;;;;3.23;2.63;;;16.60;99.90;;;;;;5010298;28;20554;-51
2023/08/01 01:59:03;;;;;;;3.23;2.97;;;16.60;99.90;;;;;;5009926;28;21041;-51
2023/08/01 02:01:29;;;;;;;6.57;4.27;;;16.60;99.90;;;;;;5012047;28;20543;-52
2023/08/01 02:03:56;;;;;;;4.47;3.10;;;16.60;99.90;;;;;;5005129;28;20469;-53
2023/08/01 02:06:22;;;;;;;6.23;2.90;;;16.60;99.90;;;;;;5010648;28;20885;-53
2023/08/01 02:08:49;;;;;;;3.07;2.63;;;16.60;99.90;;;;;;5013832;28;20515;-51
2023/08/01 02:11:15;;;;;;;6.30;3.30;;;16.60;99.90;;;;;;5008247;28;20559;-52
2023/08/01 02:13:43;;;;;;;4.77;2.90;;;16.60;99.90;;;;;;5009510;28;21008;-52
2023/08/01 02:16:10;;;;;;;8.00;3.23;;;16.60;99.90;;;;;;5005755;28;20499;-52
2023/08/01 02:18:37;;;;;;;4.87;3.00;;;16.60;99.90;;;;;;5013776;28;20468;-51
2023/08/01 02:21:04;;;;;;;3.40;3.10;;;16.50;99.90;;;;;;5012951;28;20464;-53
2023/08/01 02:23:31;;;;;;;5.33;3.10;;;16.50;99.90;;;;;;5013370;28;20554;-52
2023/08/01 02:25:57;;;;;;;3.80;3.00;;;16.60;99.90;;;;;;5013839;28;20459;-54
2023/08/01 02:28:24;;;;;;;3.57;2.30;;;16.60;99.90;;;;;;5003859;28;21107;-51
2023/08/01 02:30:52;;;;;;;5.70;3.23;;;16.60;99.90;;;;;;5009551;28;20578;-52
2023/08/01 02:33:18;;;;;;;4.87;2.60;;;16.60;99.90;;;;;;5012883;28;20526;-51
2023/08/01 02:35:46;;;;;;;3.80;3.40;;;16.60;99.90;;;;;;5010101;28;21025;-51
2023/08/01 02:38:13;;;;;;;2.80;2.60;;;16.60;99.90;;;;;;5014232;28;20543;-51
2023/08/01 02:40:39;;;;;;;3.50;2.97;;;16.60;99.90;;;;;;5012592;28;20555;-53
2023/08/01 02:43:06;;;;;;;3.70;2.77;;;16.60;99.90;;;;;;5012299;28;20499;-54
2023/08/01 02:45:32;;;;;;;7.60;3.27;;;16.60;99.90;;;;;;5005892;28;20510;-52
2023/08/01 02:48:00;;;;;;;3.93;2.57;;;16.60;99.90;;;;;;5028809;22;20578;-55
2023/08/01 02:50:27;;;;;;;3.80;3.13;;;16.60;99.90;;;;;;5042218;28;21069;-57
2023/08/01 02:52:53;;;;;;;5.17;2.83;;;16.60;99.90;;;;;;5047618;28;20535;-57
2023/08/01 02:55:20;;;;;;;2.93;2.43;;;16.70;99.90;;;;;;5043899;28;20497;-57
2023/08/01 02:57:46;;;;;;;4.03;3.10;;;16.70;99.90;;;;;;5050679;28;20493;-57
2023/08/01 03:00:13;;;;;;;3.40;2.93;;;16.70;99.90;;;;;;5024992;28;20550;-57
2023/08/01 03:02:40;;;;;;;5.07;3.13;;;16.70;99.90;;;;;;5027489;28;20462;-57
2023/08/01 03:05:09;;;;;;;5.60;3.30;;;16.60;99.90;;;;;;5024389;28;20845;-57
2023/08/01 03:07:36;;;;;;;4.13;3.20;;;16.70;99.90;;;;;;5029884;28;20581;-57
2023/08/01 03:10:04;;;;;;;5.10;3.03;;;16.60;99.90;;;;;;5026215;28;20574;-57
2023/08/01 03:12:30;;;;;;;5.10;3.07;;;16.70;99.90;;;;;;5031061;28;20510;-58
2023/08/01 03:14:57;;;;;;;4.17;3.00;;;16.70;99.90;;;;;;5027363;28;20494;-58
2023/08/01 03:17:23;;;;;;;4.60;2.90;;;16.70;99.90;;;;;;5026278;28;21411;-57
2023/08/01 03:19:50;;;;;;;6.00;3.20;;;16.70;99.90;;;;;;5025472;28;20574;-56
2023/08/01 03:22:18;;;;;;;2.70;2.50;;;16.70;99.90;;;;;;5029102;28;20541;-57
2023/08/01 03:24:44;;;;;;;5.73;2.90;;;16.70;99.90;;;;;;5024661;28;20491;-57
2023/08/01 03:27:11;;;;;;;4.60;2.90;;;16.70;99.90;;;;;;5031646;28;20609;-53
2023/08/01 03:29:38;;;;;;;2.93;2.50;;;16.70;99.90;;;;;;5029432;28;20557;-54
2023/08/01 03:32:05;;;;;;;4.90;3.00;;;16.80;99.90;;;;;;5027355;28;20482;-52
2023/08/01 03:34:32;;;;;;;5.77;3.47;;;16.70;99.90;;;;;;5022704;28;20538;-53
2023/08/01 03:36:58;;;;;;;4.60;3.00;;;16.70;99.90;;;;;;5026403;28;20459;-53
2023/08/01 03:39:26;;;;;;;4.70;3.33;;;16.80;99.90;;;;;;5026433;28;20482;-53
2023/08/01 03:41:53;;;;;;;4.33;2.80;;;16.80;99.90;;;;;;5029983;28;20952;-53
2023/08/01 03:44:19;;;;;;;3.40;2.70;;;16.80;99.90;;;;;;5028232;28;20550;-52
2023/08/01 03:46:47;;;;;;;5.20;3.40;;;16.80;99.90;;;;;;5031666;28;20491;-52
2023/08/01 03:49:13;;;;;;;3.73;2.80;;;16.80;99.90;;;;;;5031006;28;20502;-53
2023/08/01 03:51:40;;;;;;;4.53;2.93;;;16.80;99.90;;;;;;5022745;28;20487;-53
2023/08/01 03:54:06;;;;;;;3.60;2.97;;;16.80;99.90;;;;;;5021908;28;20463;-52
2023/08/01 03:56:34;;;;;;;4.30;3.03;;;16.80;99.90;;;;;;5027096;28;20518;-54
2023/08/01 03:59:04;;;;;;;3.40;2.97;;;16.80;99.90;;;;;;5024228;28;20574;-52
2023/08/01 04:01:30;;;;;;;6.23;2.73;;;16.80;99.90;;;;;;5024640;28;20931;-52
2023/08/01 04:03:57;;;;;;;3.30;3.00;;;16.90;99.90;;;;;;5025939;28;20505;-53
2023/08/01 04:06:23;;;;;;;4.50;2.77;;;16.90;99.90;;;;;;5028635;28;20567;-52
2023/08/01 04:08:51;;;;;;;6.00;3.40;;;16.90;99.90;;;;;;5027226;28;20494;-52
2023/08/01 04:11:18;;;;;;;6.73;3.40;;;16.90;99.90;;;;;;5024674;28;20516;-52
2023/08/01 04:13:45;;;;;;;8.03;3.87;;;16.90;99.90;;;;;;5024172;28;20988;-52
2023/08/01 04:16:12;;;;;;;3.30;2.60;;;16.90;99.90;;;;;;5027456;28;20491;-52
2023/08/01 04:18:38;;;;;;;10.17;2.87;;;16.90;99.90;;;;;;5030806;28;21039;-53
2023/08/01 04:21:06;;;;;;;3.90;3.07;;;16.90;99.90;;;;;;5027559;28;20809;-53
2023/08/01 04:23:33;;;;;;;4.87;3.07;;;16.90;99.90;;;;;;5023697;28;20465;-53
2023/08/01 04:25:59;;;;;;;7.30;3.33;;;16.90;99.90;;;;;;5023406;28;20999;-54
2023/08/01 04:28:26;;;;;;;3.33;2.80;;;16.90;99.90;;;;;;5023412;28;20482;-53
2023/08/01 04:30:54;;;;;;;3.30;3.00;;;16.90;99.90;;;;;;5028672;28;20463;-53
2023/08/01 04:33:20;;;;;;;2.90;2.60;;;17.00;99.90;;;;;;5029518;28;21019;-52
2023/08/01 04:35:49;;;;;;;5.37;3.13;;;17.00;99.90;;;;;;5022289;28;20467;-53
2023/08/01 04:38:15;;;;;;;5.77;3.60;;;17.00;99.90;;;;;;5017082;28;20491;-53
2023/08/01 04:40:42;;;;;;;6.40;2.90;;;17.00;99.90;;;;;;5023271;28;20557;-54
2023/08/01 04:43:08;;;;;;;3.20;2.90;;;17.00;99.90;;;;;;5025211;28;20532;-52
2023/08/01 04:45:35;;;;;;;6.70;3.00;;;17.00;99.90;;;;;;5018199;28;20530;-53
2023/08/01 04:48:03;;;;;;;4.50;2.93;;;17.00;99.90;;;;;;5025818;28;20517;-54
2023/08/01 04:50:30;;;;;;;4.17;3.13;;;17.00;99.90;;;;;;5023860;28;20520;-53
2023/08/01 04:52:56;;;;;;;3.03;2.60;;;17.00;99.90;;;;;;5023825;28;20531;-54
2023/08/01 04:55:23;;;;;;;3.27;2.97;;;17.00;99.90;;;;;;5024539;28;20459;-53
2023/08/01 04:57:49;;;;;;;4.73;2.80;;;17.10;99.90;;;;;;5022250;28;20486;-53
2023/08/01 05:00:16;;;;;;;7.53;2.70;;;17.10;99.90;;;;;;5021386;28;20518;-54
2023/08/01 05:02:42;;;;;;;3.60;3.17;;;17.10;99.90;;;;;;5020093;28;20493;-52
2023/08/01 05:05:10;;;;;;;4.27;3.00;;;17.10;99.90;;;;;;5023842;28;20489;-53
2023/08/01 05:07:37;;;;;;;4.90;3.03;;;17.10;99.90;;;;;;5028260;28;20459;-53
2023/08/01 05:10:04;;;;;;;3.50;2.90;;;17.10;99.90;;;;;;5029489;28;20487;-54
2023/08/01 05:12:31;;;;;;;7.33;3.03;;;17.10;99.90;;;;;;5028897;28;20576;-53
2023/08/01 05:14:57;;;;;;;5.30;3.10;;;17.10;99.90;;;;;;5025476;28;20459;-54
2023/08/01 05:17:24;;;;;;;4.77;3.10;;;17.10;99.90;;;;;;5022136;28;20487;-54
2023/08/01 05:19:50;;;;;;;3.73;2.17;;;17.10;99.90;;;;;;5025274;28;20482;-54
2023/08/01 05:22:18;;;;;;;5.03;2.57;;;17.20;99.90;;;;;;5026004;28;21028;-54
2023/08/01 05:24:45;;;;;;;3.20;2.63;;;17.10;99.90;;;;;;5026631;28;20459;-53
2023/08/01 05:27:12;;;;;;;3.37;2.80;;;17.20;99.90;;;;;;5027759;28;20459;-53
2023/08/01 05:29:38;;;;;;;3.27;2.50;;;17.20;99.90;;;;;;5025099;28;20562;-53
2023/08/01 05:32:05;;;;;;;7.87;3.17;;;17.30;99.90;;;;;;5030174;28;20514;-53
2023/08/01 05:34:31;;;;;;;5.23;3.13;;;17.20;99.90;;;;;;5023157;28;20532;-53
2023/08/01 05:36:58;;;;;;;2.50;2.30;;;17.30;99.90;;;;;;5023000;28;20490;-54
2023/08/01 05:39:26;;;;;;;2.93;2.10;;;17.30;99.90;;;;;;5026743;28;20995;-52
2023/08/01 05:41:52;;;;;;;7.33;3.50;;;17.30;99.90;;;;;;5028083;28;20459;-54
2023/08/01 05:44:19;;;;;;;3.67;2.30;;;17.40;99.90;;;;;;5027745;28;20876;-54
2023/08/01 05:46:46;;;;;;;2.77;2.30;;;17.40;99.90;;;;;;5029262;28;20498;-54
2023/08/01 05:49:12;;;;;;;4.20;2.00;;;17.40;99.90;;;;;;5027800;28;20606;-54
2023/08/01 05:51:39;;;;;;;4.00;2.17;;;17.40;99.90;;;;;;5025444;28;20991;-54
2023/08/01 05:54:05;;;;;;;3.50;2.53;;;17.40;99.90;;;;;;5021705;28;21044;-54
2023/08/01 05:56:33;;;;;;;4.97;3.00;;;17.50;99.90;;;;;;5025155;28;20887;-59
2023/08/01 05:59:00;;;;;;;3.03;2.53;;;17.50;99.90;;;;;;5032522;28;20536;-58
2023/08/01 06:01:27;;;;;;;3.97;2.67;;;17.50;99.90;;;;;;5029068;28;20458;-57
2023/08/01 06:03:54;;;;;;;6.60;3.40;;;17.50;99.90;;;;;;5020509;28;20482;-58
2023/08/01 06:06:20;;;;;;;2.07;1.93;;;17.50;99.90;;;;;;5029322;28;20509;-59
2023/08/01 06:08:47;;;;;;;2.70;2.40;;;17.50;99.90;;;;;;5025231;28;20536;-58
2023/08/01 06:11:13;;;;;;;4.10;2.27;;;17.50;99.90;;;;;;5031124;28;20458;-58
2023/08/01 06:13:41;;;;;;;4.40;2.57;;;17.50;99.90;;;;;;5030164;28;20486;-59
2023/08/01 06:16:08;;;;;;;7.77;2.90;;;17.50;99.90;;;;;;5032643;28;20524;-59
2023/08/01 06:18:34;;;;;;;2.73;2.50;;;17.60;99.90;;;;;;5032072;28;20525;-57
2023/08/01 06:21:02;;;;;;;2.90;2.17;;;17.60;99.90;;;;;;5027598;28;20532;-58
2023/08/01 06:23:28;;;;;;;12.43;3.00;;;17.60;99.90;;;;;;5032468;28;20463;-58
2023/08/01 06:25:55;;;;;;;3.80;2.50;;;17.60;99.90;;;;;;5028939;28;20462;-58
2023/08/01 06:28:22;;;;;;;3.20;2.40;;;17.60;99.90;;;;;;5029017;28;20482;-58
2023/08/01 06:30:49;;;;;;;3.47;2.37;;;17.60;99.90;;;;;;5030225;28;20962;-58
2023/08/01 06:33:16;;;;;;;3.20;2.40;;;17.60;99.90;;;;;;5029563;28;20839;-58
2023/08/01 06:35:43;;;;;;;4.80;3.30;;;17.60;99.90;;;;;;5030499;28;20819;-59
2023/08/01 06:38:09;;;;;;;5.47;2.47;;;17.60;99.90;;;;;;5027418;28;20589;-58
2023/08/01 06:40:36;;;;;;;3.40;2.90;;;17.60;99.90;;;;;;5032836;28;20550;-58
2023/08/01 06:43:02;;;;;;;5.50;2.50;;;17.60;99.90;;;;;;5027249;28;20462;-58
2023/08/01 06:45:29;;;;;;;3.83;2.27;;;17.60;99.90;;;;;;5028458;28;20489;-58
2023/08/01 06:47:57;;;;;;;3.00;2.70;;;17.50;99.90;;;;;;5033060;28;20541;-59
2023/08/01 06:50:23;;;;;;;9.30;2.73;;;17.50;99.90;;;;;;5032552;28;20450;-59
2023/08/01 06:52:50;;;;;;;11.90;3.30;;;17.50;99.90;;;;;;5027478;28;20483;-59
2023/08/01 06:55:17;;;;;;;2.63;2.43;;;17.50;99.90;;;;;;5030327;28;20494;-59
2023/08/01 06:57:43;;;;;;;7.13;3.60;;;17.50;99.90;;;;;;5031631;28;20462;-59
2023/08/01 07:00:11;;;;;;;4.47;2.87;;;17.50;99.90;;;;;;5028764;28;20483;-59
2023/08/01 07:02:38;;;;;;;4.10;3.20;;;17.60;99.90;;;;;;5030691;28;20465;-59
2023/08/01 07:05:06;;;;;;;3.40;2.60;;;17.70;99.90;;;;;;5033521;28;20431;-59
2023/08/01 07:07:33;;;;;;;4.80;3.20;;;17.70;99.90;;;;;;5028841;28;20509;-58
2023/08/01 07:10:00;;;;;;;4.07;2.63;;;17.70;99.90;;;;;;5028837;28;20490;-59
2023/08/01 07:12:26;;;;;;;6.30;2.93;;;17.70;99.90;;;;;;5025928;28;20484;-58
2023/08/01 07:14:53;;;;;;;5.50;3.03;;;17.80;99.90;;;;;;5025814;28;20467;-58
2023/08/01 07:17:19;;;;;;;2.70;2.50;;;17.80;99.90;;;;;;5030718;28;20953;-58
2023/08/01 07:19:46;;;;;;;2.77;2.53;;;17.90;99.90;;;;;;5030758;28;20479;-57
2023/08/01 07:22:14;;;;;;;3.57;2.73;;;17.90;99.90;;;;;;5031960;28;20544;-58
2023/08/01 07:24:40;;;;;;;2.73;2.53;;;18.00;99.90;;;;;;5027493;28;20467;-58
2023/08/01 07:27:07;;;;;;;6.43;3.10;;;18.00;99.90;;;;;;5029450;28;20528;-58
2023/08/01 07:29:34;;;;;;;3.30;2.63;;;18.10;99.90;;;;;;5031459;28;20903;-58
2023/08/01 07:32:00;;;;;;;4.37;2.60;;;18.20;99.90;;;;;;5027409;28;20957;-58
2023/08/01 07:34:27;;;;;;;9.50;2.10;;;18.30;99.90;;;;;;5017601;28;20470;-58
2023/08/01 07:36:53;;;;;;;2.40;2.20;;;18.30;99.90;;;;;;5028493;28;20489;-58
2023/08/01 07:39:21;;;;;;;3.10;2.50;;;18.40;99.90;;;;;;5028090;28;20517;-58
2023/08/01 07:41:48;;;;;;;3.33;2.47;;;18.50;99.90;;;;;;5024240;28;20463;-59
2023/08/01 07:44:14;;;;;;;3.20;2.30;;;18.60;99.90;;;;;;5023504;28;20877;-58
2023/08/01 07:46:41;;;;;;;3.07;2.73;;;18.70;99.90;;;;;;5027226;28;20487;-58
2023/08/01 07:49:08;;;;;;;6.60;2.77;;;18.80;99.90;;;;;;5025316;28;20512;-58
2023/08/01 07:51:34;;;;;;;4.23;2.97;;;18.90;99.90;;;;;;5022971;28;20455;-58
2023/08/01 07:54:01;;;;;;;3.00;2.00;;;19.00;99.90;;;;;;5023590;28;20565;-58
2023/08/01 07:56:29;;;;;;;2.90;2.37;;;18.90;99.90;;;;;;5018898;28;20470;-59
2023/08/01 07:58:55;;;;;;;2.97;2.73;;;19.00;99.90;;;;;;5025319;28;20532;-59
2023/08/01 08:01:22;;;;;;;7.30;2.00;;;19.10;99.90;;;;;;5023430;28;20544;-58
2023/08/01 08:03:48;;;;;;;2.30;1.87;;;19.10;99.90;;;;;;5027332;28;20462;-59
2023/08/01 08:06:15;;;;;;;3.30;2.57;;;19.20;99.90;;;;;;5027622;28;20497;-59
2023/08/01 08:08:42;;;;;;;3.23;2.03;;;19.10;99.90;;;;;;5025599;28;20474;-59
2023/08/01 08:11:07;;;;;;;3.57;2.90;;;19.20;99.90;;;;;;5028423;28;20455;-58
2023/08/01 08:13:35;;;;;;;4.33;2.00;;;19.20;99.90;;;;;;5026502;28;20536;-58
2023/08/01 08:16:04;;;;;;;3.80;2.30;;;19.30;99.90;;;;;;5027146;28;20238;-59
2023/08/01 08:18:30;;;;;;;2.03;1.90;;;19.30;99.90;;;;;;5025597;28;20485;-59
2023/08/01 08:20:57;;;;;;;2.70;1.90;;;19.30;99.90;;;;;;5030938;28;20467;-59
2023/08/01 08:23:24;;;;;;;2.90;2.00;;;19.30;99.90;;;;;;5019967;28;20501;-58
2023/08/01 08:25:50;;;;;;;2.47;2.10;;;19.30;99.90;;;;;;5025782;28;20893;-58
2023/08/01 08:28:30;;;;;;;2.80;1.90;;;19.30;99.90;;;;;;5026350;28;20479;-54
2023/08/01 08:30:58;;;;;;;1.93;1.83;;;19.30;99.90;;;;;;5026938;28;20463;-54
2023/08/01 08:33:25;;;;;;;3.10;1.97;;;19.30;99.90;;;;;;5014345;28;20576;-54
2023/08/01 08:35:52;;;;;;;2.47;2.27;;;19.30;99.90;;;;;;5024279;28;21059;-55
2023/08/01 08:38:19;;;;;;;3.33;2.23;;;19.40;99.90;;;;;;5026478;28;20910;-54
2023/08/01 08:40:54;;;;;;;2.93;1.90;;;19.30;99.90;;;;;;5028935;28;20465;-54
2023/08/01 08:43:21;;;;;;;2.53;2.33;;;19.30;99.90;;;;;;5026675;28;20486;-54
2023/08/01 08:45:49;;;;;;;2.53;2.33;;;19.30;99.90;;;;;;5026464;28;20458;-54
2023/08/01 08:48:19;;;;;;;2.30;2.03;;;19.30;99.90;;;;;;5018925;28;21015;-54
2023/08/01 08:50:46;;;;;;;2.17;1.80;;;19.30;99.90;;;;;;5025494;28;20459;-59
2023/08/01 08:53:15;;;;;;;5.40;2.30;;;19.20;99.90;;;;;;5026858;28;20492;-58
2023/08/01 08:55:42;;;;;;;3.63;1.63;;;19.20;99.90;;;;;;5021563;28;20490;-58
2023/08/01 08:58:09;;;;;;;2.80;1.87;;;19.10;99.90;;;;;;5022782;28;20533;-58
2023/08/01 09:00:37;;;;;;;1.67;1.50;;;19.00;99.90;;;;;;5022262;28;20545;-59
2023/08/01 09:03:03;;;;;;;2.93;1.90;;;19.00;99.90;;;;;;5023542;28;20554;-59
2023/08/01 09:05:40;;;;;;;2.20;1.77;;;19.00;99.90;;;;;;5024146;28;20462;-59
2023/08/01 09:08:16;;;;;;;2.60;2.00;;;19.00;99.90;;;;;;5029006;28;20450;-59
2023/08/01 09:10:43;;;;;;;4.93;1.83;;;19.00;99.90;;;;;;5027882;28;20531;-58
2023/08/01 09:13:09;;;;;;;2.17;1.97;;;19.00;99.90;;;;;;5026924;28;20505;-59
2023/08/01 09:15:37;;;;;;;12.30;1.80;;;19.10;99.90;;;;;;5022133;28;20569;-59
2023/08/01 09:18:07;;;;;;;3.27;1.80;;;19.20;99.90;;;;;;5026666;28;20460;-59
2023/08/01 09:20:43;;;;;;;2.90;1.87;;;19.30;99.90;;;;;;5028103;28;20470;-59
2023/08/01 09:23:10;;;;;;;3.63;1.97;;;19.30;99.90;;;;;;5026456;28;20520;-60
2023/08/01 09:25:37;;;;;;;1.97;1.80;;;19.30;99.90;;;;;;5029993;28;20458;-60
2023/08/01 09:28:04;;;;;;;2.80;2.17;;;19.40;99.90;;;;;;5024064;28;20467;-60
2023/08/01 09:30:31;;;;;;;3.87;1.53;;;19.50;99.90;;;;;;5029610;28;21041;-58
2023/08/01 09:32:58;;;;;;;1.77;1.67;;;19.60;99.90;;;;;;5030069;28;20849;-58
2023/08/01 09:35:26;;;;;;;2.20;1.60;;;19.70;99.90;;;;;;5022318;28;20489;-58
2023/08/01 09:37:54;;;;;;;3.63;1.40;;;19.70;99.90;;;;;;5029463;28;21030;-58
2023/08/01 09:40:20;;;;;;;2.00;1.63;;;19.50;99.90;;;;;;5026340;28;20532;-58
2023/08/01 09:42:47;;;;;;;1.23;1.07;;;19.30;99.90;;;;;;5029292;28;20505;-58
2023/08/01 09:45:15;;;;;;;2.60;1.20;;;19.10;99.90;;;;;;5027884;28;20520;-52
2023/08/01 09:47:41;;;;;;;1.20;1.10;;;18.80;99.90;;;;;;5031075;28;20545;-52
2023/08/01 09:50:10;;;;;;;1.90;1.30;;;18.70;99.90;;;;;;5027556;28;21003;-54
2023/08/01 09:52:37;;;;;;;1.10;0.80;;;18.70;99.90;;;;;;5028485;28;20458;-52
2023/08/01 09:55:06;;;;;;;1.40;1.23;;;18.70;99.90;;;;;;5026198;28;20506;-52
2023/08/01 09:57:32;;;;;;;1.07;1.07;;;18.70;99.90;;;;;;5027146;28;20972;-52
2023/08/01 10:00:00;;;;;;;1.97;1.00;;;18.70;1.40;;;;;;5027861;28;20478;-52
2023/08/01 10:02:31;;;;;;;2.00;1.10;;;18.70;99.90;;;;;;5023576;28;20532;-52
2023/08/01 10:04:59;;;;;;;1.33;1.23;;;18.70;99.90;;;;;;5025542;28;20465;-53
2023/08/01 10:07:30;;;;;;;1.30;1.20;;;18.70;99.90;;;;;;5031555;28;20483;-51
2023/08/01 10:09:59;;;;;;;3.33;1.17;;;18.70;99.90;;;;;;5028754;28;20888;-52
2023/08/01 10:12:28;;;;;;;1.10;1.07;;;18.70;99.90;;;;;;5028186;28;20463;-52
2023/08/01 10:14:55;;;;;;;1.17;1.07;;;18.70;99.90;;;;;;5028245;28;20487;-52
2023/08/01 10:17:22;;;;;;;1.80;1.00;;;18.80;99.90;;;;;;5031205;28;20512;-53
2023/08/01 10:19:50;;;;;;;1.67;0.87;;;18.60;99.90;;;;;;5030604;28;20522;-53
2023/08/01 10:22:17;;;;;;;1.10;0.97;;;18.60;99.90;;;;;;5028574;28;20462;-52
2023/08/01 10:24:44;;;;;;;1.27;1.17;;;18.50;99.90;;;;;;5027538;28;20819;-53
2023/08/01 10:27:15;;;;;;;2.80;1.40;;;18.40;99.90;;;;;;5029927;28;20504;-52
2023/08/01 10:29:43;;;;;;;6.03;1.30;;;18.30;99.90;;;;;;5029291;28;20470;-53
2023/08/01 10:32:11;;;;;;;5.03;1.37;;;18.20;99.90;;;;;;5026881;28;20486;-52
2023/08/01 10:34:38;;;;;;;2.57;1.30;;;18.10;99.90;;;;;;5028429;28;20486;-52
2023/08/01 10:37:05;;;;;;;1.03;0.93;;;17.90;99.90;;;;;;5029630;28;20535;-52
2023/08/01 10:39:32;;;;;;;3.97;1.23;;;17.70;99.90;;;;;;5032760;28;20854;-53
2023/08/01 10:42:00;;;;;;;1.33;1.23;;;17.50;99.90;;;;;;5029723;28;20497;-53
2023/08/01 10:44:27;;;;;;;2.00;1.10;;;17.50;99.90;;;;;;5027215;28;20463;-53
2023/08/01 10:46:57;;;;;;;6.67;1.10;;;17.40;99.90;;;;;;5029372;28;20467;-52
2023/08/01 10:49:36;;;;;;;5.37;1.10;;;17.40;99.90;;;;;;5028649;28;20548;-53
2023/08/01 10:52:03;;;;;;;1.83;1.03;;;17.30;99.90;;;;;;5022174;28;20459;-52
2023/08/01 10:54:31;;;;;;;0.80;0.77;;;17.20;99.00;;;;;;5027190;28;20478;-52
2023/08/01 10:56:59;;;;;;;1.10;0.90;;;17.10;99.00;;;;;;5028103;28;20462;-52
2023/08/01 10:59:25;;;;;;;0.93;0.83;;;17.10;98.40;;;;;;5027411;28;20477;-54
2023/08/01 11:01:54;;;;;;;1.00;0.90;;;17.10;98.40;;;;;;5027583;28;20540;-52
2023/08/01 11:04:22;;;;;;;3.73;1.10;;;17.10;95.50;;;;;;5030644;28;20901;-52
2023/08/01 11:06:51;;;;;;;3.27;1.33;;;17.00;96.30;;;;;;5028415;28;20846;-53
2023/08/01 11:09:19;;;;;;;4.10;1.90;;;17.10;96.40;;;;;;5032195;28;20533;-52
2023/08/01 11:11:47;;;;;;;2.67;2.07;;;16.90;97.40;;;;;;5032550;28;20431;-53
2023/08/01 11:14:14;;;;;;;2.77;2.47;;;16.90;97.70;;;;;;5029791;28;20542;-53
2023/08/01 11:16:41;;;;;;;8.07;2.73;;;17.00;97.40;;;;;;5031006;28;20543;-53
2023/08/01 11:19:19;;;;;;;6.70;3.37;;;16.90;96.80;;;;;;5024801;28;20532;-54
2023/08/01 11:21:45;;;;;;;3.77;3.20;;;17.10;95.80;;;;;;5026869;28;20455;-53
2023/08/01 11:24:12;;;;;;;5.40;3.73;;;17.00;96.40;;;;;;5025930;28;20455;-53
2023/08/01 11:26:42;;;;;;;5.30;3.70;;;17.00;96.80;;;;;;5031915;28;20874;-53
2023/08/01 11:29:08;;;;;;;6.17;3.70;;;17.10;97.80;;;;;;5031459;28;20565;-53
2023/08/01 11:31:35;;;;;;;4.93;3.80;;;17.10;99.20;;;;;;5014697;28;20553;-53
2023/08/01 11:34:02;;;;;;;5.50;3.30;;;17.10;99.90;;;;;;5012840;28;20511;-52
2023/08/01 11:36:31;;;;;;;7.80;3.10;;;17.10;98.60;;;;;;5017032;28;20458;-52
2023/08/01 11:39:00;;;;;;;3.37;2.90;;;17.20;97.80;;;;;;5022448;28;20506;-53
2023/08/01 11:41:27;;;;;;;4.20;3.10;;;17.20;98.00;;;;;;5018674;28;20557;-52
2023/08/01 11:43:55;;;;;;;7.53;4.23;;;17.30;98.00;;;;;;5021866;28;21184;-53
2023/08/01 11:46:22;;;;;;;7.60;3.50;;;17.30;97.70;;;;;;5020856;28;20992;-52
2023/08/01 11:48:50;;;;;;;3.80;3.00;;;17.30;97.30;;;;;;5022942;28;20494;-52
2023/08/01 11:51:17;;;;;;;6.33;3.83;;;17.40;97.70;;;;;;5021196;28;20547;-53
2023/08/01 11:53:45;;;;;;;8.27;3.90;;;17.30;99.90;;;;;;5017935;28;20482;-52
2023/08/01 11:56:20;;;;;;;5.57;2.90;;;17.20;99.90;;;;;;5025026;28;20516;-52
2023/08/01 11:58:47;;;;;;;5.23;3.67;;;17.20;99.90;;;;;;5022624;28;21077;-53
2023/08/01 12:01:14;;;;;;;8.07;3.53;;;17.20;99.90;;;;;;5023833;28;20451;-53
2023/08/01 12:03:45;;;;;;;5.87;3.87;;;17.20;99.90;;;;;;5027397;28;20450;-52
2023/08/01 12:06:13;;;;;;;5.23;3.20;;;17.30;99.90;;;;;;5023658;28;20545;-53
2023/08/01 12:08:42;;;;;;;10.00;3.67;;;17.30;99.90;;;;;;5025567;28;20490;-53
2023/08/01 12:11:20;;;;;;;10.83;3.57;;;17.40;99.90;;;;;;5027978;28;20459;-52
2023/08/01 12:13:47;;;;;;;4.53;4.13;;;17.60;99.20;;;;;;5027602;28;20546;-52
2023/08/01 12:16:19;;;;;;;6.00;4.07;;;18.00;99.90;;;;;;5022296;28;20881;-52
2023/08/01 12:18:47;;;;;;;4.67;3.53;;;18.10;99.90;;;;;;5024068;28;20490;-52
2023/08/01 12:21:13;;;;;;;4.30;3.83;;;18.20;99.90;;;;;;5025244;28;20521;-53
2023/08/01 12:23:40;;;;;;;3.93;3.47;;;18.30;99.90;;;;;;5026253;28;20879;-53
2023/08/01 12:26:08;;;;;;;5.77;3.30;;;18.00;99.90;;;;;;5023675;28;21676;-52
2023/08/01 12:28:36;;;;;;;9.33;3.80;;;18.00;99.90;;;;;;5021484;28;20506;-53
2023/08/01 12:31:03;;;;;;;7.60;3.93;;;17.90;99.90;;;;;;5025801;28;20532;-52
2023/08/01 12:33:30;;;;;;;8.73;4.70;;;18.00;99.90;;;;;;5027598;28;20902;-52
2023/08/01 12:35:57;;;;;;;8.70;4.70;;;18.30;99.90;;;;;;5027567;28;20490;-53
2023/08/01 12:38:24;;;;;;;8.20;4.03;;;18.50;99.90;;;;;;5021282;28;20478;-53
2023/08/01 12:40:50;;;;;;;6.67;3.47;;;18.70;99.90;;;;;;5023536;28;20467;-52
2023/08/01 12:43:17;;;;;;;6.23;4.20;;;19.00;99.90;;;;;;5021193;28;20526;-54
2023/08/01 12:45:46;;;;;;;6.27;3.90;;;19.10;99.90;;;;;;5019544;28;20953;-53